OEFFB EHAM-EGLC
Flight info
| Callsign | OEFFB |
|---|---|
| Flight time | 0h 48m |
| Altitude | 20000 |
| Route | IDRID L980 XAMAN |
| Aircraft | C510/L-SBGHRWYZ/S |
Departure
| Time | 2026-04-29 12:40 |
|---|---|
| Airport | Amsterdam Airport Schiphol (EHAM) |
Arrival
| Time | 2026-04-29 13:28 |
|---|---|
| Airport | London City Airport (EGLC) |
| Time | Latitude | Longitude | Altitude | Speed | Heading |
|---|---|---|---|---|---|
| 2026-04-29 12:11 | 52.30987 | 4.74385 | -7 ft | 0 kts | 273° |
| 2026-04-29 12:28 | 52.30987 | 4.74384 | -7 ft | 1 kts | 273° |
| 2026-04-29 12:28 | 52.30989 | 4.74320 | -7 ft | 9 kts | 273° |
| 2026-04-29 12:28 | 52.30995 | 4.74249 | -7 ft | 6 kts | 307° |
| 2026-04-29 12:29 | 52.31025 | 4.74247 | -7 ft | 7 kts | 1° |
| 2026-04-29 12:29 | 52.31095 | 4.74253 | -7 ft | 14 kts | 3° |
| 2026-04-29 12:29 | 52.31194 | 4.74261 | -7 ft | 10 kts | 4° |
| 2026-04-29 12:29 | 52.31271 | 4.74270 | -7 ft | 14 kts | 1° |
| 2026-04-29 12:30 | 52.31366 | 4.74279 | -7 ft | 16 kts | 359° |
| 2026-04-29 12:30 | 52.31467 | 4.74285 | -7 ft | 12 kts | 2° |
| 2026-04-29 12:30 | 52.31554 | 4.74294 | -6 ft | 15 kts | 3° |
| 2026-04-29 12:30 | 52.31662 | 4.74304 | -4 ft | 16 kts | 3° |
| 2026-04-29 12:31 | 52.31770 | 4.74315 | -7 ft | 14 kts | 3° |
| 2026-04-29 12:31 | 52.31873 | 4.74324 | -10 ft | 11 kts | 3° |
| 2026-04-29 12:31 | 52.31963 | 4.74331 | -10 ft | 11 kts | 2° |
| 2026-04-29 12:31 | 52.32025 | 4.74277 | -10 ft | 10 kts | 282° |
| 2026-04-29 12:32 | 52.32032 | 4.74131 | -10 ft | 16 kts | 273° |
| 2026-04-29 12:32 | 52.32037 | 4.73968 | -8 ft | 8 kts | 274° |
| 2026-04-29 12:32 | 52.32041 | 4.73878 | -6 ft | 10 kts | 275° |
| 2026-04-29 12:32 | 52.32046 | 4.73741 | -4 ft | 14 kts | 273° |
| 2026-04-29 12:33 | 52.32055 | 4.73548 | -3 ft | 20 kts | 276° |
| 2026-04-29 12:33 | 52.32087 | 4.73339 | -4 ft | 18 kts | 307° |
| 2026-04-29 12:33 | 52.32194 | 4.73200 | -5 ft | 23 kts | 320° |
| 2026-04-29 12:33 | 52.32327 | 4.73018 | -8 ft | 20 kts | 321° |
| 2026-04-29 12:34 | 52.32432 | 4.72868 | -7 ft | 23 kts | 321° |
| 2026-04-29 12:34 | 52.32547 | 4.72707 | -8 ft | 21 kts | 320° |
| 2026-04-29 12:34 | 52.32661 | 4.72547 | -5 ft | 22 kts | 316° |
| 2026-04-29 12:34 | 52.32763 | 4.72363 | -11 ft | 24 kts | 310° |
| 2026-04-29 12:35 | 52.32868 | 4.72165 | -7 ft | 22 kts | 311° |
| 2026-04-29 12:35 | 52.32932 | 4.72050 | -7 ft | 13 kts | 311° |
| 2026-04-29 12:35 | 52.33003 | 4.71915 | -7 ft | 19 kts | 313° |
| 2026-04-29 12:35 | 52.33097 | 4.71740 | -6 ft | 16 kts | 312° |
| 2026-04-29 12:36 | 52.33145 | 4.71574 | -5 ft | 19 kts | 258° |
| 2026-04-29 12:36 | 52.33125 | 4.71443 | -5 ft | 10 kts | 285° |
| 2026-04-29 12:36 | 52.33180 | 4.71334 | -5 ft | 16 kts | 312° |
| 2026-04-29 12:36 | 52.33242 | 4.71219 | -7 ft | 12 kts | 311° |
| 2026-04-29 12:37 | 52.33296 | 4.71118 | -8 ft | 11 kts | 311° |
| 2026-04-29 12:37 | 52.33300 | 4.71109 | -8 ft | 0 kts | 310° |
| 2026-04-29 12:37 | 52.33301 | 4.71108 | -8 ft | 2 kts | 310° |
| 2026-04-29 12:37 | 52.33335 | 4.71044 | -8 ft | 12 kts | 310° |
| 2026-04-29 12:38 | 52.33407 | 4.70941 | -8 ft | 12 kts | 338° |
| 2026-04-29 12:38 | 52.33451 | 4.70937 | -8 ft | 0 kts | 358° |
| 2026-04-29 12:39 | 52.33470 | 4.70937 | -7 ft | 18 kts | 0° |
| 2026-04-29 12:39 | 52.33833 | 4.70969 | -5 ft | 84 kts | 2° |
| 2026-04-29 12:40 | 52.34569 | 4.71033 | 180 ft | 116 kts | 4° |
| 2026-04-29 12:40 | 52.35411 | 4.71192 | 642 ft | 130 kts | 6° |
| 2026-04-29 12:40 | 52.36365 | 4.71335 | 1209 ft | 145 kts | 4° |
| 2026-04-29 12:40 | 52.37421 | 4.71423 | 1849 ft | 158 kts | 2° |
| 2026-04-29 12:41 | 52.38563 | 4.71473 | 2574 ft | 168 kts | 2° |
| 2026-04-29 12:41 | 52.39755 | 4.71575 | 3146 ft | 174 kts | 4° |
| 2026-04-29 12:41 | 52.40974 | 4.71736 | 3769 ft | 177 kts | 4° |
| 2026-04-29 12:41 | 52.42209 | 4.71896 | 4408 ft | 176 kts | 0° |
| 2026-04-29 12:42 | 52.43361 | 4.71367 | 4991 ft | 177 kts | 323° |
| 2026-04-29 12:42 | 52.44290 | 4.70078 | 5528 ft | 179 kts | 317° |
| 2026-04-29 12:42 | 52.45218 | 4.68443 | 5606 ft | 208 kts | 309° |
| 2026-04-29 12:42 | 52.46167 | 4.66488 | 5604 ft | 229 kts | 300° |
| 2026-04-29 12:43 | 52.46605 | 4.63985 | 5843 ft | 232 kts | 276° |
| 2026-04-29 12:43 | 52.46655 | 4.61406 | 6499 ft | 215 kts | 271° |
| 2026-04-29 12:43 | 52.46689 | 4.59075 | 7346 ft | 197 kts | 271° |
| 2026-04-29 12:43 | 52.46701 | 4.56810 | 7843 ft | 200 kts | 269° |
| 2026-04-29 12:44 | 52.46447 | 4.54575 | 8297 ft | 202 kts | 246° |
| 2026-04-29 12:44 | 52.45697 | 4.52632 | 8783 ft | 203 kts | 228° |
| 2026-04-29 12:44 | 52.44576 | 4.51234 | 9249 ft | 204 kts | 211° |
| 2026-04-29 12:44 | 52.43375 | 4.50025 | 9714 ft | 206 kts | 213° |
| 2026-04-29 12:45 | 52.42264 | 4.48557 | 10159 ft | 207 kts | 230° |
| 2026-04-29 12:45 | 52.41526 | 4.46522 | 10597 ft | 209 kts | 243° |
| 2026-04-29 12:45 | 52.40839 | 4.44417 | 11034 ft | 210 kts | 241° |
| 2026-04-29 12:45 | 52.40135 | 4.42308 | 11466 ft | 211 kts | 242° |
| 2026-04-29 12:46 | 52.39450 | 4.40171 | 11899 ft | 213 kts | 242° |
| 2026-04-29 12:46 | 52.38763 | 4.38062 | 12309 ft | 214 kts | 242° |
| 2026-04-29 12:46 | 52.38049 | 4.35863 | 12734 ft | 216 kts | 242° |
| 2026-04-29 12:46 | 52.37338 | 4.33692 | 13149 ft | 217 kts | 242° |
| 2026-04-29 12:47 | 52.36624 | 4.31499 | 13561 ft | 219 kts | 242° |
| 2026-04-29 12:47 | 52.35910 | 4.29320 | 13967 ft | 220 kts | 242° |
| 2026-04-29 12:47 | 52.35177 | 4.27075 | 14375 ft | 222 kts | 242° |
| 2026-04-29 12:47 | 52.34446 | 4.24845 | 14770 ft | 223 kts | 242° |
| 2026-04-29 12:48 | 52.33720 | 4.22630 | 15155 ft | 224 kts | 242° |
| 2026-04-29 12:48 | 52.32981 | 4.20375 | 15535 ft | 226 kts | 242° |
| 2026-04-29 12:48 | 52.32235 | 4.18107 | 15906 ft | 227 kts | 242° |
| 2026-04-29 12:48 | 52.31482 | 4.15821 | 16268 ft | 228 kts | 240° |
| 2026-04-29 12:49 | 52.30526 | 4.13737 | 16592 ft | 230 kts | 230° |
| 2026-04-29 12:49 | 52.29524 | 4.11686 | 16953 ft | 231 kts | 233° |
| 2026-04-29 12:49 | 52.28551 | 4.09591 | 17305 ft | 232 kts | 232° |
| 2026-04-29 12:49 | 52.27552 | 4.07500 | 17654 ft | 234 kts | 232° |
| 2026-04-29 12:50 | 52.26563 | 4.05427 | 17996 ft | 235 kts | 232° |
| 2026-04-29 12:50 | 52.25553 | 4.03319 | 18340 ft | 236 kts | 232° |
| 2026-04-29 12:50 | 52.24539 | 4.01194 | 18682 ft | 238 kts | 232° |
| 2026-04-29 12:50 | 52.23521 | 3.99063 | 19019 ft | 239 kts | 233° |
| 2026-04-29 12:51 | 52.22761 | 3.96656 | 19324 ft | 240 kts | 251° |
| 2026-04-29 12:51 | 52.22259 | 3.94039 | 19598 ft | 245 kts | 252° |
| 2026-04-29 12:51 | 52.21678 | 3.91335 | 19612 ft | 259 kts | 249° |
| 2026-04-29 12:51 | 52.20969 | 3.88553 | 19614 ft | 272 kts | 247° |
| 2026-04-29 12:52 | 52.20237 | 3.85646 | 19620 ft | 282 kts | 248° |
| 2026-04-29 12:52 | 52.19498 | 3.82622 | 19624 ft | 290 kts | 248° |
| 2026-04-29 12:52 | 52.18745 | 3.79570 | 19627 ft | 297 kts | 248° |
| 2026-04-29 12:52 | 52.17966 | 3.76420 | 19625 ft | 302 kts | 248° |
| 2026-04-29 12:53 | 52.17170 | 3.73215 | 19624 ft | 306 kts | 248° |
| 2026-04-29 12:53 | 52.16364 | 3.69968 | 19624 ft | 309 kts | 248° |
| 2026-04-29 12:53 | 52.15555 | 3.66709 | 19622 ft | 312 kts | 248° |
| 2026-04-29 12:53 | 52.14736 | 3.63425 | 19624 ft | 313 kts | 248° |
| 2026-04-29 12:54 | 52.13918 | 3.60136 | 19624 ft | 314 kts | 248° |
| 2026-04-29 12:54 | 52.13093 | 3.56842 | 19623 ft | 315 kts | 248° |
| 2026-04-29 12:54 | 52.12270 | 3.53542 | 19622 ft | 315 kts | 248° |
| 2026-04-29 12:54 | 52.11451 | 3.50277 | 19623 ft | 316 kts | 248° |
| 2026-04-29 12:55 | 52.10620 | 3.46964 | 19624 ft | 316 kts | 248° |
| 2026-04-29 12:55 | 52.09786 | 3.43643 | 19624 ft | 316 kts | 248° |
| 2026-04-29 12:55 | 52.08952 | 3.40332 | 19624 ft | 316 kts | 248° |
| 2026-04-29 12:55 | 52.08119 | 3.37019 | 19625 ft | 316 kts | 248° |
| 2026-04-29 12:56 | 52.07281 | 3.33707 | 19625 ft | 317 kts | 248° |
| 2026-04-29 12:56 | 52.06446 | 3.30394 | 19625 ft | 317 kts | 248° |
| 2026-04-29 12:56 | 52.05606 | 3.27079 | 19623 ft | 317 kts | 248° |
| 2026-04-29 12:56 | 52.04765 | 3.23762 | 19626 ft | 317 kts | 248° |
| 2026-04-29 12:57 | 52.03937 | 3.20499 | 19623 ft | 317 kts | 248° |
| 2026-04-29 12:57 | 52.03094 | 3.17186 | 19624 ft | 317 kts | 248° |
| 2026-04-29 12:57 | 52.02252 | 3.13872 | 19623 ft | 317 kts | 248° |
| 2026-04-29 12:57 | 52.01407 | 3.10567 | 19624 ft | 317 kts | 248° |
| 2026-04-29 12:58 | 52.00563 | 3.07253 | 19625 ft | 317 kts | 248° |
| 2026-04-29 12:58 | 51.99717 | 3.03952 | 19622 ft | 317 kts | 248° |
| 2026-04-29 12:58 | 51.98871 | 3.00645 | 19625 ft | 317 kts | 248° |
| 2026-04-29 12:58 | 51.98036 | 2.97385 | 19624 ft | 317 kts | 248° |
| 2026-04-29 12:59 | 51.97175 | 2.94042 | 19625 ft | 317 kts | 247° |
| 2026-04-29 12:59 | 51.96339 | 2.90786 | 19624 ft | 317 kts | 248° |
| 2026-04-29 12:59 | 51.95490 | 2.87491 | 19624 ft | 316 kts | 247° |
| 2026-04-29 12:59 | 51.94644 | 2.84214 | 19624 ft | 312 kts | 247° |
| 2026-04-29 13:00 | 51.93809 | 2.80976 | 19624 ft | 310 kts | 247° |
| 2026-04-29 13:00 | 51.92975 | 2.77760 | 19625 ft | 307 kts | 247° |
| 2026-04-29 13:00 | 51.92148 | 2.74564 | 19623 ft | 306 kts | 247° |
| 2026-04-29 13:00 | 51.91337 | 2.71441 | 19621 ft | 305 kts | 247° |
| 2026-04-29 13:01 | 51.90505 | 2.68237 | 19621 ft | 304 kts | 247° |
| 2026-04-29 13:01 | 51.89695 | 2.65122 | 19619 ft | 304 kts | 247° |
| 2026-04-29 13:01 | 51.88874 | 2.61975 | 19618 ft | 303 kts | 247° |
| 2026-04-29 13:01 | 51.88049 | 2.58809 | 19880 ft | 307 kts | 246° |
| 2026-04-29 13:02 | 51.87208 | 2.55595 | 19897 ft | 314 kts | 246° |
| 2026-04-29 13:02 | 51.86332 | 2.52249 | 19557 ft | 331 kts | 246° |
| 2026-04-29 13:02 | 51.85416 | 2.48747 | 19217 ft | 343 kts | 246° |
| 2026-04-29 13:02 | 51.84478 | 2.45168 | 18889 ft | 349 kts | 246° |
| 2026-04-29 13:03 | 51.83522 | 2.41533 | 18559 ft | 352 kts | 246° |
| 2026-04-29 13:03 | 51.82561 | 2.37884 | 18190 ft | 353 kts | 246° |
| 2026-04-29 13:03 | 51.81606 | 2.34258 | 17819 ft | 348 kts | 246° |
| 2026-04-29 13:03 | 51.80663 | 2.30690 | 17453 ft | 342 kts | 246° |
| 2026-04-29 13:04 | 51.79878 | 2.27153 | 17102 ft | 337 kts | 257° |
| 2026-04-29 13:04 | 51.79588 | 2.23407 | 16745 ft | 334 kts | 266° |
| 2026-04-29 13:04 | 51.79468 | 2.19657 | 16391 ft | 333 kts | 268° |
| 2026-04-29 13:04 | 51.79286 | 2.15942 | 16040 ft | 332 kts | 263° |
| 2026-04-29 13:05 | 51.78959 | 2.12253 | 15692 ft | 331 kts | 261° |
| 2026-04-29 13:05 | 51.78646 | 2.08562 | 15352 ft | 331 kts | 263° |
| 2026-04-29 13:05 | 51.78392 | 2.04862 | 15010 ft | 332 kts | 263° |
| 2026-04-29 13:05 | 51.78130 | 2.01161 | 14678 ft | 332 kts | 263° |
| 2026-04-29 13:06 | 51.77843 | 1.97461 | 14348 ft | 333 kts | 262° |
| 2026-04-29 13:06 | 51.77557 | 1.93745 | 14008 ft | 333 kts | 263° |
| 2026-04-29 13:06 | 51.77278 | 1.90029 | 13640 ft | 334 kts | 263° |
| 2026-04-29 13:06 | 51.77000 | 1.86356 | 13276 ft | 334 kts | 262° |
| 2026-04-29 13:07 | 51.76714 | 1.82628 | 12916 ft | 334 kts | 262° |
| 2026-04-29 13:07 | 51.76427 | 1.78903 | 12559 ft | 334 kts | 262° |
| 2026-04-29 13:07 | 51.76140 | 1.75176 | 12196 ft | 334 kts | 262° |
| 2026-04-29 13:07 | 51.75851 | 1.71441 | 11853 ft | 334 kts | 262° |
| 2026-04-29 13:08 | 51.75556 | 1.67723 | 11499 ft | 333 kts | 261° |
| 2026-04-29 13:08 | 51.74829 | 1.64303 | 11130 ft | 315 kts | 238° |
| 2026-04-29 13:08 | 51.73602 | 1.61467 | 10776 ft | 304 kts | 229° |
| 2026-04-29 13:08 | 51.72362 | 1.58733 | 10444 ft | 301 kts | 233° |
| 2026-04-29 13:09 | 51.71283 | 1.55836 | 10103 ft | 300 kts | 238° |
| 2026-04-29 13:09 | 51.70274 | 1.52899 | 9729 ft | 299 kts | 237° |
| 2026-04-29 13:09 | 51.69211 | 1.50022 | 9361 ft | 299 kts | 235° |
| 2026-04-29 13:09 | 51.68158 | 1.47241 | 9316 ft | 288 kts | 236° |
| 2026-04-29 13:10 | 51.67144 | 1.44508 | 9316 ft | 279 kts | 236° |
| 2026-04-29 13:10 | 51.66162 | 1.41851 | 9312 ft | 273 kts | 236° |
| 2026-04-29 13:10 | 51.65195 | 1.39250 | 9307 ft | 268 kts | 235° |
| 2026-04-29 13:10 | 51.64561 | 1.37550 | 9305 ft | 267 kts | 236° |
| 2026-04-29 13:11 | 51.63585 | 1.34938 | 9302 ft | 278 kts | 235° |
| 2026-04-29 13:11 | 51.62560 | 1.32194 | 9220 ft | 294 kts | 236° |
| 2026-04-29 13:11 | 51.61512 | 1.29373 | 8846 ft | 291 kts | 236° |
| 2026-04-29 13:11 | 51.60474 | 1.26581 | 8438 ft | 289 kts | 235° |
| 2026-04-29 13:12 | 51.59454 | 1.23859 | 8044 ft | 287 kts | 235° |
| 2026-04-29 13:12 | 51.58426 | 1.21119 | 7633 ft | 285 kts | 236° |
| 2026-04-29 13:12 | 51.57405 | 1.18391 | 7250 ft | 284 kts | 236° |
| 2026-04-29 13:12 | 51.56383 | 1.15666 | 6857 ft | 283 kts | 235° |
| 2026-04-29 13:13 | 51.55365 | 1.12954 | 6456 ft | 283 kts | 236° |
| 2026-04-29 13:13 | 51.54360 | 1.10278 | 6312 ft | 273 kts | 235° |
| 2026-04-29 13:13 | 51.53402 | 1.07728 | 6310 ft | 261 kts | 235° |
| 2026-04-29 13:13 | 51.52488 | 1.05305 | 6305 ft | 252 kts | 235° |
| 2026-04-29 13:14 | 51.51591 | 1.02929 | 6304 ft | 246 kts | 234° |
| 2026-04-29 13:14 | 51.50707 | 1.00590 | 6223 ft | 245 kts | 234° |
| 2026-04-29 13:14 | 51.49822 | 0.98252 | 6095 ft | 245 kts | 234° |
| 2026-04-29 13:14 | 51.48936 | 0.95908 | 6013 ft | 244 kts | 234° |
| 2026-04-29 13:15 | 51.48079 | 0.93573 | 6014 ft | 240 kts | 239° |
| 2026-04-29 13:15 | 51.47623 | 0.91029 | 6013 ft | 241 kts | 261° |
| 2026-04-29 13:15 | 51.47614 | 0.88315 | 5922 ft | 242 kts | 275° |
| 2026-04-29 13:15 | 51.47738 | 0.85531 | 5647 ft | 267 kts | 274° |
| 2026-04-29 13:16 | 51.47841 | 0.82442 | 5374 ft | 287 kts | 274° |
| 2026-04-29 13:16 | 51.47968 | 0.79178 | 5105 ft | 296 kts | 274° |
| 2026-04-29 13:16 | 51.48098 | 0.75887 | 4823 ft | 294 kts | 274° |
| 2026-04-29 13:16 | 51.48220 | 0.72616 | 4547 ft | 293 kts | 274° |
| 2026-04-29 13:17 | 51.48340 | 0.69356 | 4270 ft | 292 kts | 274° |
| 2026-04-29 13:17 | 51.48460 | 0.66098 | 4028 ft | 291 kts | 274° |
| 2026-04-29 13:17 | 51.48576 | 0.62914 | 4022 ft | 281 kts | 274° |
| 2026-04-29 13:17 | 51.48688 | 0.59848 | 4023 ft | 278 kts | 274° |
| 2026-04-29 13:18 | 51.48801 | 0.56698 | 4024 ft | 286 kts | 273° |
| 2026-04-29 13:18 | 51.48916 | 0.53466 | 4022 ft | 292 kts | 274° |
| 2026-04-29 13:18 | 51.49032 | 0.50180 | 4017 ft | 295 kts | 272° |
| 2026-04-29 13:18 | 51.48804 | 0.46903 | 3982 ft | 297 kts | 253° |
| 2026-04-29 13:19 | 51.48033 | 0.43772 | 3615 ft | 306 kts | 238° |
| 2026-04-29 13:19 | 51.46927 | 0.40854 | 3230 ft | 310 kts | 236° |
| 2026-04-29 13:19 | 51.45882 | 0.37968 | 2993 ft | 284 kts | 237° |
| 2026-04-29 13:19 | 51.44926 | 0.35310 | 2989 ft | 267 kts | 236° |
| 2026-04-29 13:20 | 51.43984 | 0.32783 | 2985 ft | 261 kts | 236° |
| 2026-04-29 13:20 | 51.43301 | 0.30095 | 2988 ft | 264 kts | 255° |
| 2026-04-29 13:20 | 51.43137 | 0.27147 | 2980 ft | 277 kts | 272° |
| 2026-04-29 13:20 | 51.43263 | 0.24011 | 2991 ft | 287 kts | 275° |
| 2026-04-29 13:21 | 51.43365 | 0.20780 | 2987 ft | 293 kts | 274° |
| 2026-04-29 13:21 | 51.43461 | 0.17493 | 2988 ft | 296 kts | 274° |
| 2026-04-29 13:21 | 51.43574 | 0.14167 | 2988 ft | 300 kts | 274° |
| 2026-04-29 13:21 | 51.43691 | 0.10815 | 2997 ft | 302 kts | 274° |
| 2026-04-29 13:22 | 51.43796 | 0.07477 | 2997 ft | 292 kts | 273° |
| 2026-04-29 13:22 | 51.43889 | 0.04330 | 2832 ft | 282 kts | 274° |
| 2026-04-29 13:22 | 51.43993 | 0.01204 | 2551 ft | 279 kts | 275° |
| 2026-04-29 13:22 | 51.44090 | -0.01881 | 2267 ft | 275 kts | 275° |
| 2026-04-29 13:23 | 51.44176 | -0.04845 | 2013 ft | 257 kts | 275° |
| 2026-04-29 13:23 | 51.44455 | -0.07518 | 1981 ft | 231 kts | 297° |
| 2026-04-29 13:23 | 51.45303 | -0.09583 | 1991 ft | 214 kts | 319° |
| 2026-04-29 13:23 | 51.46431 | -0.10940 | 1992 ft | 199 kts | 342° |
| 2026-04-29 13:24 | 51.47696 | -0.11592 | 1995 ft | 184 kts | 2° |
| 2026-04-29 13:24 | 51.48913 | -0.11390 | 1996 ft | 171 kts | 26° |
| 2026-04-29 13:24 | 51.49912 | -0.10491 | 2001 ft | 158 kts | 46° |
| 2026-04-29 13:24 | 51.50545 | -0.09233 | 1998 ft | 136 kts | 64° |
| 2026-04-29 13:25 | 51.50861 | -0.07813 | 1998 ft | 132 kts | 79° |
| 2026-04-29 13:25 | 51.50656 | -0.05122 | 1990 ft | 116 kts | 94° |
| 2026-04-29 13:25 | 51.50700 | -0.03825 | 1931 ft | 121 kts | 88° |
| 2026-04-29 13:26 | 51.50709 | -0.02489 | 1632 ft | 113 kts | 86° |
| 2026-04-29 13:26 | 51.50695 | -0.01344 | 1377 ft | 95 kts | 87° |
| 2026-04-29 13:26 | 51.50682 | -0.00328 | 1145 ft | 88 kts | 88° |
| 2026-04-29 13:26 | 51.50653 | 0.00615 | 908 ft | 84 kts | 90° |
| 2026-04-29 13:27 | 51.50618 | 0.01534 | 713 ft | 82 kts | 87° |
| 2026-04-29 13:27 | 51.50593 | 0.02442 | 525 ft | 83 kts | 90° |
| 2026-04-29 13:27 | 51.50563 | 0.03352 | 325 ft | 80 kts | 85° |
| 2026-04-29 13:27 | 51.50557 | 0.04235 | 123 ft | 79 kts | 86° |
| 2026-04-29 13:28 | 51.50536 | 0.05051 | 28 ft | 64 kts | 88° |
| 2026-04-29 13:28 | 51.50523 | 0.05605 | 21 ft | 34 kts | 91° |
| 2026-04-29 13:28 | 51.50510 | 0.05965 | 21 ft | 22 kts | 98° |
| 2026-04-29 13:28 | 51.50467 | 0.06032 | 21 ft | 5 kts | 211° |
| 2026-04-29 13:29 | 51.50426 | 0.05950 | 21 ft | 12 kts | 271° |
| 2026-04-29 13:29 | 51.50436 | 0.05755 | 21 ft | 22 kts | 271° |
| 2026-04-29 13:29 | 51.50444 | 0.05461 | 21 ft | 31 kts | 274° |
| 2026-04-29 13:29 | 51.50456 | 0.05102 | 21 ft | 31 kts | 276° |
| 2026-04-29 13:30 | 51.50460 | 0.04844 | 21 ft | 13 kts | 240° |